sensor_id;sensor_type;location;lat;lon;timestamp;pressure;altitude;pressure_sealevel;temperature;humidity
62164;BME280;48149;51.132;7.178;2023-07-31T00:02:23;98344.44;;;26.39;87.39
62164;BME280;48149;51.132;7.178;2023-07-31T00:04:48;98330.31;;;25.49;90.88
62164;BME280;48149;51.132;7.178;2023-07-31T00:07:14;98341.78;;;25.32;89.97
62164;BME280;48149;51.132;7.178;2023-07-31T00:09:40;98336.75;;;26.37;85.64
62164;BME280;48149;51.132;7.178;2023-07-31T00:12:05;98338.31;;;26.68;82.57
62164;BME280;48149;51.132;7.178;2023-07-31T00:14:31;98343.41;;;27.11;81.54
62164;BME280;48149;51.132;7.178;2023-07-31T00:16:56;98329.13;;;27.39;79.66
62164;BME280;48149;51.132;7.178;2023-07-31T00:19:21;98331.50;;;27.20;79.75
62164;BME280;48149;51.132;7.178;2023-07-31T00:21:47;98334.25;;;26.91;82.88
62164;BME280;48149;51.132;7.178;2023-07-31T00:24:12;98331.75;;;26.86;83.56
62164;BME280;48149;51.132;7.178;2023-07-31T00:26:37;98340.69;;;27.19;79.13
62164;BME280;48149;51.132;7.178;2023-07-31T00:29:03;98322.72;;;27.11;79.47
62164;BME280;48149;51.132;7.178;2023-07-31T00:31:28;98328.72;;;26.58;81.25
62164;BME280;48149;51.132;7.178;2023-07-31T00:33:53;98335.06;;;27.12;82.46
62164;BME280;48149;51.132;7.178;2023-07-31T00:36:19;98340.44;;;26.54;83.05
62164;BME280;48149;51.132;7.178;2023-07-31T00:38:44;98332.44;;;25.90;87.40
62164;BME280;48149;51.132;7.178;2023-07-31T00:41:10;98324.06;;;25.91;86.17
62164;BME280;48149;51.132;7.178;2023-07-31T00:43:35;98328.16;;;26.06;87.00
62164;BME280;48149;51.132;7.178;2023-07-31T00:46:00;98331.78;;;27.48;78.14
62164;BME280;48149;51.132;7.178;2023-07-31T00:48:26;98316.50;;;26.69;81.63
62164;BME280;48149;51.132;7.178;2023-07-31T00:50:51;98329.94;;;27.19;76.41
62164;BME280;48149;51.132;7.178;2023-07-31T00:53:17;98327.19;;;28.38;72.54
62164;BME280;48149;51.132;7.178;2023-07-31T00:55:43;98313.84;;;27.52;74.36
62164;BME280;48149;51.132;7.178;2023-07-31T00:58:08;98321.44;;;28.28;71.89
62164;BME280;48149;51.132;7.178;2023-07-31T01:00:34;98325.41;;;26.23;78.06
62164;BME280;48149;51.132;7.178;2023-07-31T01:03:00;98329.50;;;26.29;82.54
62164;BME280;48149;51.132;7.178;2023-07-31T01:08:27;98317.09;;;27.04;78.90
62164;BME280;48149;51.132;7.178;2023-07-31T01:11:04;98315.50;;;26.82;79.11
62164;BME280;48149;51.132;7.178;2023-07-31T01:13:32;98312.38;;;27.01;80.53
62164;BME280;48149;51.132;7.178;2023-07-31T01:15:58;98312.75;;;26.91;77.32
62164;BME280;48149;51.132;7.178;2023-07-31T01:18:23;98311.81;;;27.70;73.41
62164;BME280;48149;51.132;7.178;2023-07-31T01:20:54;98314.41;;;26.75;76.10
62164;BME280;48149;51.132;7.178;2023-07-31T01:23:38;98312.34;;;28.56;71.40
62164;BME280;48149;51.132;7.178;2023-07-31T01:26:38;98317.09;;;27.90;71.79
62164;BME280;48149;51.132;7.178;2023-07-31T01:29:10;98309.09;;;26.95;78.11
62164;BME280;48149;51.132;7.178;2023-07-31T01:31:39;98321.22;;;26.43;76.95
62164;BME280;48149;51.132;7.178;2023-07-31T01:34:06;98303.63;;;26.54;78.35
62164;BME280;48149;51.132;7.178;2023-07-31T01:36:33;98311.81;;;27.70;72.71
62164;BME280;48149;51.132;7.178;2023-07-31T01:38:59;98311.72;;;27.04;72.97
62164;BME280;48149;51.132;7.178;2023-07-31T01:41:26;98317.59;;;26.39;76.50
62164;BME280;48149;51.132;7.178;2023-07-31T01:43:51;98305.44;;;26.41;77.63
62164;BME280;48149;51.132;7.178;2023-07-31T01:46:16;98304.63;;;26.99;73.76
62164;BME280;48149;51.132;7.178;2023-07-31T01:48:42;98315.06;;;25.96;79.40
62164;BME280;48149;51.132;7.178;2023-07-31T01:51:07;98300.63;;;26.56;76.14
62164;BME280;48149;51.132;7.178;2023-07-31T01:53:32;98306.03;;;26.76;75.06
62164;BME280;48149;51.132;7.178;2023-07-31T01:55:58;98310.38;;;27.51;72.80
62164;BME280;48149;51.132;7.178;2023-07-31T01:58:24;98315.00;;;27.51;70.57
62164;BME280;48149;51.132;7.178;2023-07-31T02:00:49;98306.69;;;26.73;73.86
62164;BME280;48149;51.132;7.178;2023-07-31T02:03:14;98314.50;;;27.70;67.36
62164;BME280;48149;51.132;7.178;2023-07-31T02:05:49;98304.03;;;28.01;69.05
62164;BME280;48149;51.132;7.178;2023-07-31T02:08:15;98306.47;;;26.28;74.09
62164;BME280;48149;51.132;7.178;2023-07-31T02:10:41;98292.50;;;27.14;72.73
62164;BME280;48149;51.132;7.178;2023-07-31T02:13:06;98285.34;;;25.63;78.41
62164;BME280;48149;51.132;7.178;2023-07-31T02:15:33;98288.09;;;27.51;68.19
62164;BME280;48149;51.132;7.178;2023-07-31T02:17:58;98283.91;;;27.41;70.15
62164;BME280;48149;51.132;7.178;2023-07-31T02:20:24;98291.41;;;27.15;72.05
62164;BME280;48149;51.132;7.178;2023-07-31T02:22:49;98292.28;;;27.61;69.69
62164;BME280;48149;51.132;7.178;2023-07-31T02:25:15;98287.13;;;28.37;66.13
62164;BME280;48149;51.132;7.178;2023-07-31T02:27:40;98281.22;;;27.86;69.19
62164;BME280;48149;51.132;7.178;2023-07-31T02:30:06;98293.09;;;26.99;71.68
62164;BME280;48149;51.132;7.178;2023-07-31T02:32:32;98280.56;;;37.82;36.41
62164;BME280;48149;51.132;7.178;2023-07-31T02:34:57;98279.44;;;35.41;39.69
62164;BME280;48149;51.132;7.178;2023-07-31T02:37:23;98272.78;;;39.37;33.52
62164;BME280;48149;51.132;7.178;2023-07-31T02:39:51;98282.59;;;27.47;66.03
62164;BME280;48149;51.132;7.178;2023-07-31T02:42:16;98275.91;;;26.04;76.32
62164;BME280;48149;51.132;7.178;2023-07-31T02:44:42;98284.75;;;26.04;79.93
62164;BME280;48149;51.132;7.178;2023-07-31T02:47:07;98275.25;;;26.74;73.40
62164;BME280;48149;51.132;7.178;2023-07-31T02:49:33;98272.38;;;26.79;72.55
62164;BME280;48149;51.132;7.178;2023-07-31T02:51:58;98274.72;;;27.87;68.32
62164;BME280;48149;51.132;7.178;2023-07-31T02:54:23;98273.31;;;27.45;66.81
62164;BME280;48149;51.132;7.178;2023-07-31T02:56:49;98270.16;;;26.81;75.09
62164;BME280;48149;51.132;7.178;2023-07-31T02:59:14;98260.06;;;26.19;78.95
62164;BME280;48149;51.132;7.178;2023-07-31T03:01:39;98256.41;;;25.86;78.95
62164;BME280;48149;51.132;7.178;2023-07-31T03:04:05;98258.75;;;26.34;79.29
62164;BME280;48149;51.132;7.178;2023-07-31T03:06:30;98259.38;;;25.04;87.12
62164;BME280;48149;51.132;7.178;2023-07-31T03:08:55;98261.47;;;25.79;81.42
62164;BME280;48149;51.132;7.178;2023-07-31T03:11:21;98252.25;;;25.59;82.76
62164;BME280;48149;51.132;7.178;2023-07-31T03:13:46;98257.16;;;24.97;85.32
62164;BME280;48149;51.132;7.178;2023-07-31T03:16:12;98252.38;;;26.18;79.19
62164;BME280;48149;51.132;7.178;2023-07-31T03:18:37;98255.97;;;25.75;84.04
62164;BME280;48149;51.132;7.178;2023-07-31T03:21:02;98257.78;;;25.28;86.69
62164;BME280;48149;51.132;7.178;2023-07-31T03:23:28;98254.63;;;25.09;87.19
62164;BME280;48149;51.132;7.178;2023-07-31T03:26:01;98247.03;;;26.00;80.88
62164;BME280;48149;51.132;7.178;2023-07-31T03:28:26;98239.69;;;25.89;81.58
62164;BME280;48149;51.132;7.178;2023-07-31T03:30:52;98245.25;;;26.22;80.14
62164;BME280;48149;51.132;7.178;2023-07-31T03:33:18;98241.78;;;26.21;80.69
62164;BME280;48149;51.132;7.178;2023-07-31T03:35:43;98234.25;;;26.06;77.85
62164;BME280;48149;51.132;7.178;2023-07-31T03:38:09;98230.72;;;26.14;78.28
62164;BME280;48149;51.132;7.178;2023-07-31T03:40:34;98237.34;;;26.25;77.73
62164;BME280;48149;51.132;7.178;2023-07-31T03:42:59;98241.66;;;25.71;81.36
62164;BME280;48149;51.132;7.178;2023-07-31T03:45:25;98240.22;;;27.12;72.75
62164;BME280;48149;51.132;7.178;2023-07-31T03:47:50;98243.69;;;26.12;81.14
62164;BME280;48149;51.132;7.178;2023-07-31T03:50:16;98239.69;;;27.18;71.70
62164;BME280;48149;51.132;7.178;2023-07-31T03:52:41;98236.50;;;26.33;78.50
62164;BME280;48149;51.132;7.178;2023-07-31T03:55:07;98236.53;;;27.16;74.37
62164;BME280;48149;51.132;7.178;2023-07-31T03:57:32;98239.84;;;26.30;78.05
62164;BME280;48149;51.132;7.178;2023-07-31T03:59:58;98252.72;;;27.28;73.83
62164;BME280;48149;51.132;7.178;2023-07-31T04:02:23;98238.00;;;26.93;76.36
62164;BME280;48149;51.132;7.178;2023-07-31T04:04:49;98246.66;;;27.31;76.74
62164;BME280;48149;51.132;7.178;2023-07-31T04:07:14;98243.25;;;27.10;78.97
62164;BME280;48149;51.132;7.178;2023-07-31T04:09:39;98238.94;;;27.63;75.84
62164;BME280;48149;51.132;7.178;2023-07-31T04:12:05;98229.91;;;26.22;80.97
62164;BME280;48149;51.132;7.178;2023-07-31T04:14:30;98232.09;;;25.91;82.57
62164;BME280;48149;51.132;7.178;2023-07-31T04:16:55;98237.47;;;26.79;81.89
62164;BME280;48149;51.132;7.178;2023-07-31T04:19:21;98227.13;;;26.19;81.35
62164;BME280;48149;51.132;7.178;2023-07-31T04:21:46;98222.19;;;26.71;80.30
62164;BME280;48149;51.132;7.178;2023-07-31T04:24:12;98223.59;;;25.34;84.66
62164;BME280;48149;51.132;7.178;2023-07-31T04:26:37;98220.72;;;25.39;88.56
62164;BME280;48149;51.132;7.178;2023-07-31T04:29:02;98209.22;;;26.31;84.04
62164;BME280;48149;51.132;7.178;2023-07-31T04:31:28;98208.84;;;26.04;86.03
62164;BME280;48149;51.132;7.178;2023-07-31T04:33:53;98212.69;;;26.52;82.22
62164;BME280;48149;51.132;7.178;2023-07-31T04:36:18;98214.94;;;26.21;83.78
62164;BME280;48149;51.132;7.178;2023-07-31T04:38:44;98210.13;;;25.97;85.01
62164;BME280;48149;51.132;7.178;2023-07-31T04:41:09;98220.53;;;26.58;80.38
62164;BME280;48149;51.132;7.178;2023-07-31T04:43:34;98217.72;;;25.95;82.18
62164;BME280;48149;51.132;7.178;2023-07-31T04:46:00;98206.06;;;25.28;88.47
62164;BME280;48149;51.132;7.178;2023-07-31T04:48:25;98209.22;;;25.56;88.53
62164;BME280;48149;51.132;7.178;2023-07-31T04:50:50;98209.63;;;25.66;86.73
62164;BME280;48149;51.132;7.178;2023-07-31T04:53:16;98208.78;;;25.83;87.31
62164;BME280;48149;51.132;7.178;2023-07-31T04:55:41;98216.78;;;25.91;84.19
62164;BME280;48149;51.132;7.178;2023-07-31T04:58:06;98216.22;;;25.05;87.16
62164;BME280;48149;51.132;7.178;2023-07-31T05:00:32;98213.75;;;26.02;81.70
62164;BME280;48149;51.132;7.178;2023-07-31T05:02:57;98202.31;;;26.22;85.02
62164;BME280;48149;51.132;7.178;2023-07-31T05:05:23;98209.28;;;26.64;80.06
62164;BME280;48149;51.132;7.178;2023-07-31T05:07:48;98200.84;;;25.95;82.01
62164;BME280;48149;51.132;7.178;2023-07-31T05:10:13;98193.66;;;26.16;83.66
62164;BME280;48149;51.132;7.178;2023-07-31T05:12:39;98199.19;;;26.11;84.85
62164;BME280;48149;51.132;7.178;2023-07-31T05:15:05;98185.75;;;25.82;82.29
62164;BME280;48149;51.132;7.178;2023-07-31T05:17:30;98177.41;;;27.16;78.67
62164;BME280;48149;51.132;7.178;2023-07-31T05:19:55;98166.34;;;26.14;82.07
62164;BME280;48149;51.132;7.178;2023-07-31T05:22:21;98170.69;;;25.98;83.79
62164;BME280;48149;51.132;7.178;2023-07-31T05:24:46;98176.22;;;26.93;80.16
62164;BME280;48149;51.132;7.178;2023-07-31T05:27:11;98184.91;;;26.48;83.02
62164;BME280;48149;51.132;7.178;2023-07-31T05:29:40;98170.97;;;26.76;81.01
62164;BME280;48149;51.132;7.178;2023-07-31T05:32:06;98170.72;;;26.27;83.00
62164;BME280;48149;51.132;7.178;2023-07-31T05:34:31;98165.66;;;26.26;81.92
62164;BME280;48149;51.132;7.178;2023-07-31T05:36:57;98164.41;;;26.85;81.90
62164;BME280;48149;51.132;7.178;2023-07-31T05:39:22;98156.56;;;26.80;80.40
62164;BME280;48149;51.132;7.178;2023-07-31T05:41:47;98153.94;;;26.30;84.44
62164;BME280;48149;51.132;7.178;2023-07-31T05:44:12;98153.16;;;27.37;76.49
62164;BME280;48149;51.132;7.178;2023-07-31T05:46:38;98152.19;;;27.09;76.52
62164;BME280;48149;51.132;7.178;2023-07-31T05:49:03;98142.00;;;27.02;77.24
62164;BME280;48149;51.132;7.178;2023-07-31T05:51:28;98143.50;;;26.37;80.27
62164;BME280;48149;51.132;7.178;2023-07-31T05:53:54;98135.41;;;26.17;80.74
62164;BME280;48149;51.132;7.178;2023-07-31T05:56:19;98130.63;;;26.22;79.34
62164;BME280;48149;51.132;7.178;2023-07-31T05:58:45;98123.53;;;26.80;78.92
62164;BME280;48149;51.132;7.178;2023-07-31T06:01:10;98118.72;;;26.32;80.22
62164;BME280;48149;51.132;7.178;2023-07-31T06:03:36;98123.88;;;26.78;76.95
62164;BME280;48149;51.132;7.178;2023-07-31T06:06:01;98129.25;;;27.11;77.26
62164;BME280;48149;51.132;7.178;2023-07-31T06:08:26;98137.56;;;26.65;76.34
62164;BME280;48149;51.132;7.178;2023-07-31T06:10:52;98125.69;;;27.19;75.84
62164;BME280;48149;51.132;7.178;2023-07-31T06:13:17;98126.53;;;26.45;77.40
62164;BME280;48149;51.132;7.178;2023-07-31T06:15:43;98136.19;;;27.81;74.08
62164;BME280;48149;51.132;7.178;2023-07-31T06:18:08;98148.72;;;27.08;77.66
62164;BME280;48149;51.132;7.178;2023-07-31T06:20:34;98143.38;;;26.67;82.54
62164;BME280;48149;51.132;7.178;2023-07-31T06:23:00;98148.56;;;26.72;81.19
62164;BME280;48149;51.132;7.178;2023-07-31T06:25:25;98146.59;;;25.60;88.18
62164;BME280;48149;51.132;7.178;2023-07-31T06:27:51;64471.97;;;-141.58;100.00
62164;BME280;48149;51.132;7.178;2023-07-31T06:30:16;98143.22;;;26.72;85.48
62164;BME280;48149;51.132;7.178;2023-07-31T06:32:42;98151.31;;;25.92;86.25
62164;BME280;48149;51.132;7.178;2023-07-31T06:35:08;98135.41;;;24.69;95.93
62164;BME280;48149;51.132;7.178;2023-07-31T06:37:33;98139.41;;;25.35;91.95
62164;BME280;48149;51.132;7.178;2023-07-31T06:39:58;98123.47;;;24.83;97.07
62164;BME280;48149;51.132;7.178;2023-07-31T06:42:24;98124.56;;;24.74;98.05
62164;BME280;48149;51.132;7.178;2023-07-31T06:44:49;98121.03;;;26.42;85.61
62164;BME280;48149;51.132;7.178;2023-07-31T06:47:15;98121.97;;;25.96;90.13
62164;BME280;48149;51.132;7.178;2023-07-31T06:49:40;98121.25;;;26.08;89.45
62164;BME280;48149;51.132;7.178;2023-07-31T06:52:06;98118.97;;;25.60;94.09
62164;BME280;48149;51.132;7.178;2023-07-31T06:54:31;98117.69;;;26.24;85.77
62164;BME280;48149;51.132;7.178;2023-07-31T06:56:57;98127.66;;;25.57;93.67
62164;BME280;48149;51.132;7.178;2023-07-31T06:59:22;98133.97;;;26.61;86.59
62164;BME280;48149;51.132;7.178;2023-07-31T07:01:47;98137.47;;;26.11;90.31
62164;BME280;48149;51.132;7.178;2023-07-31T07:04:13;98137.41;;;25.99;89.07
62164;BME280;48149;51.132;7.178;2023-07-31T07:06:39;98131.97;;;25.49;92.92
62164;BME280;48149;51.132;7.178;2023-07-31T07:09:04;98128.56;;;25.23;93.38
62164;BME280;48149;51.132;7.178;2023-07-31T07:11:30;98128.81;;;25.56;93.30
62164;BME280;48149;51.132;7.178;2023-07-31T07:13:55;98128.78;;;26.76;88.56
62164;BME280;48149;51.132;7.178;2023-07-31T07:16:20;98133.06;;;26.57;86.30
62164;BME280;48149;51.132;7.178;2023-07-31T07:18:46;98113.75;;;25.72;89.67
62164;BME280;48149;51.132;7.178;2023-07-31T07:21:11;98129.72;;;27.13;84.04
62164;BME280;48149;51.132;7.178;2023-07-31T07:23:41;98124.94;;;26.98;80.54
62164;BME280;48149;51.132;7.178;2023-07-31T07:26:06;98127.50;;;27.27;81.83
62164;BME280;48149;51.132;7.178;2023-07-31T07:28:31;98126.91;;;25.85;87.46
62164;BME280;48149;51.132;7.178;2023-07-31T07:30:56;98119.47;;;26.94;86.35
62164;BME280;48149;51.132;7.178;2023-07-31T07:33:23;98121.00;;;27.40;81.12
62164;BME280;48149;51.132;7.178;2023-07-31T07:35:48;98120.78;;;28.30;75.68
62164;BME280;48149;51.132;7.178;2023-07-31T07:38:14;98128.16;;;27.24;79.33
62164;BME280;48149;51.132;7.178;2023-07-31T07:40:40;98123.22;;;26.19;87.65
62164;BME280;48149;51.132;7.178;2023-07-31T07:43:06;98116.06;;;26.85;81.34
62164;BME280;48149;51.132;7.178;2023-07-31T07:45:31;98123.94;;;27.35;82.98
62164;BME280;48149;51.132;7.178;2023-07-31T07:47:56;98117.03;;;28.07;74.47
62164;BME280;48149;51.132;7.178;2023-07-31T07:50:23;98121.97;;;28.05;75.86
62164;BME280;48149;51.132;7.178;2023-07-31T07:52:48;98123.38;;;27.42;82.81
62164;BME280;48149;51.132;7.178;2023-07-31T07:55:13;98123.31;;;27.50;81.37
62164;BME280;48149;51.132;7.178;2023-07-31T07:57:39;98124.66;;;27.12;82.32
62164;BME280;48149;51.132;7.178;2023-07-31T08:00:05;98108.25;;;27.98;75.53
62164;BME280;48149;51.132;7.178;2023-07-31T08:02:31;98115.22;;;27.50;81.86
62164;BME280;48149;51.132;7.178;2023-07-31T08:04:56;98113.75;;;32.16;60.99
62164;BME280;48149;51.132;7.178;2023-07-31T08:07:22;98116.69;;;28.48;72.25
62164;BME280;48149;51.132;7.178;2023-07-31T08:09:47;98115.72;;;28.69;70.27
62164;BME280;48149;51.132;7.178;2023-07-31T08:12:12;98110.31;;;35.60;44.67
62164;BME280;48149;51.132;7.178;2023-07-31T08:14:38;98095.59;;;34.25;48.32
62164;BME280;48149;51.132;7.178;2023-07-31T08:17:03;98106.69;;;34.78;43.54
62164;BME280;48149;51.132;7.178;2023-07-31T08:19:29;98105.06;;;36.40;41.00
62164;BME280;48149;51.132;7.178;2023-07-31T08:21:54;98084.66;;;34.11;48.41
62164;BME280;48149;51.132;7.178;2023-07-31T08:24:20;98090.44;;;35.53;45.94
62164;BME280;48149;51.132;7.178;2023-07-31T08:26:45;98094.09;;;33.73;47.46
62164;BME280;48149;51.132;7.178;2023-07-31T08:29:11;98094.63;;;33.42;49.95
62164;BME280;48149;51.132;7.178;2023-07-31T08:31:37;98084.53;;;34.87;46.49
62164;BME280;48149;51.132;7.178;2023-07-31T08:34:02;98094.66;;;34.90;48.92
62164;BME280;48149;51.132;7.178;2023-07-31T08:36:28;98089.31;;;32.42;49.81
62164;BME280;48149;51.132;7.178;2023-07-31T08:38:53;98092.84;;;30.54;60.33
62164;BME280;48149;51.132;7.178;2023-07-31T08:41:18;98094.69;;;31.83;52.36
62164;BME280;48149;51.132;7.178;2023-07-31T08:43:45;98096.31;;;31.38;55.65
62164;BME280;48149;51.132;7.178;2023-07-31T08:46:11;98067.94;;;32.37;52.32
62164;BME280;48149;51.132;7.178;2023-07-31T08:48:37;98074.78;;;34.65;44.97
62164;BME280;48149;51.132;7.178;2023-07-31T08:51:03;98071.38;;;32.31;49.40
62164;BME280;48149;51.132;7.178;2023-07-31T08:53:29;98073.63;;;36.04;43.10
62164;BME280;48149;51.132;7.178;2023-07-31T08:55:54;98071.19;;;32.16;53.08
62164;BME280;48149;51.132;7.178;2023-07-31T08:58:22;98057.22;;;36.98;41.06
62164;BME280;48149;51.132;7.178;2023-07-31T09:00:49;98056.00;;;42.44;30.95
62164;BME280;48149;51.132;7.178;2023-07-31T09:03:18;98071.75;;;28.65;60.56
62164;BME280;48149;51.132;7.178;2023-07-31T09:05:46;98070.78;;;29.47;69.10
62164;BME280;48149;51.132;7.178;2023-07-31T09:08:13;98071.09;;;27.76;76.83
62164;BME280;48149;51.132;7.178;2023-07-31T09:10:44;98067.25;;;27.40;80.46
62164;BME280;48149;51.132;7.178;2023-07-31T09:13:11;98084.47;;;27.03;80.98
62164;BME280;48149;51.132;7.178;2023-07-31T09:15:37;98080.41;;;26.85;81.93
62164;BME280;48149;51.132;7.178;2023-07-31T09:18:04;98072.56;;;26.92;83.20
62164;BME280;48149;51.132;7.178;2023-07-31T09:20:30;98078.50;;;26.65;81.21
62164;BME280;48149;51.132;7.178;2023-07-31T09:23:13;98071.13;;;24.94;88.06
62164;BME280;48149;51.132;7.178;2023-07-31T09:25:40;98070.25;;;24.05;100.00
62164;BME280;48149;51.132;7.178;2023-07-31T09:28:09;98070.84;;;23.84;100.00
62164;BME280;48149;51.132;7.178;2023-07-31T09:30:46;98067.59;;;23.48;100.00
62164;BME280;48149;51.132;7.178;2023-07-31T09:33:12;98073.97;;;23.78;100.00
62164;BME280;48149;51.132;7.178;2023-07-31T09:35:38;98074.63;;;23.92;100.00
62164;BME280;48149;51.132;7.178;2023-07-31T09:38:07;98077.34;;;23.53;100.00
62164;BME280;48149;51.132;7.178;2023-07-31T09:40:46;98080.56;;;22.71;100.00
62164;BME280;48149;51.132;7.178;2023-07-31T09:43:17;98067.72;;;23.04;100.00
62164;BME280;48149;51.132;7.178;2023-07-31T09:45:44;98067.81;;;23.29;100.00
62164;BME280;48149;51.132;7.178;2023-07-31T09:48:11;98060.25;;;23.71;100.00
62164;BME280;48149;51.132;7.178;2023-07-31T09:50:38;98071.59;;;23.76;100.00
62164;BME280;48149;51.132;7.178;2023-07-31T09:53:05;98072.22;;;23.25;100.00
62164;BME280;48149;51.132;7.178;2023-07-31T09:55:31;98050.91;;;24.33;100.00
62164;BME280;48149;51.132;7.178;2023-07-31T09:57:59;98054.44;;;23.21;100.00
62164;BME280;48149;51.132;7.178;2023-07-31T10:00:29;98067.56;;;23.40;100.00
62164;BME280;48149;51.132;7.178;2023-07-31T10:02:58;98052.25;;;24.91;100.00
62164;BME280;48149;51.132;7.178;2023-07-31T10:05:31;98054.75;;;26.13;92.07
62164;BME280;48149;51.132;7.178;2023-07-31T10:07:59;98049.41;;;25.34;94.56
62164;BME280;48149;51.132;7.178;2023-07-31T10:10:25;98052.50;;;25.44;97.82
62164;BME280;48149;51.132;7.178;2023-07-31T10:12:52;98047.00;;;25.03;100.00
62164;BME280;48149;51.132;7.178;2023-07-31T10:15:18;98049.53;;;25.08;100.00
62164;BME280;48149;51.132;7.178;2023-07-31T10:17:44;98041.25;;;25.22;100.00
62164;BME280;48149;51.132;7.178;2023-07-31T10:20:11;98046.09;;;25.66;92.97
62164;BME280;48149;51.132;7.178;2023-07-31T10:22:38;98045.66;;;25.85;96.91
62164;BME280;48149;51.132;7.178;2023-07-31T10:25:04;98046.19;;;24.30;100.00
62164;BME280;48149;51.132;7.178;2023-07-31T10:27:35;98060.78;;;32.52;100.00
62164;BME280;48149;51.132;7.178;2023-07-31T10:30:03;98043.41;;;33.95;57.36
62164;BME280;48149;51.132;7.178;2023-07-31T10:32:30;98049.25;;;33.39;56.21
62164;BME280;48149;51.132;7.178;2023-07-31T10:34:55;98048.06;;;32.22;60.06
62164;BME280;48149;51.132;7.178;2023-07-31T10:40:26;98047.31;;;31.96;58.60
62164;BME280;48149;51.132;7.178;2023-07-31T10:42:53;98040.91;;;32.74;59.93
62164;BME280;48149;51.132;7.178;2023-07-31T10:45:31;98040.78;;;33.51;57.36
62164;BME280;48149;51.132;7.178;2023-07-31T10:48:01;98048.38;;;32.51;58.36
62164;BME280;48149;51.132;7.178;2023-07-31T10:50:28;98038.16;;;32.37;59.02
62164;BME280;48149;51.132;7.178;2023-07-31T10:52:55;98044.72;;;33.57;54.52
62164;BME280;48149;51.132;7.178;2023-07-31T10:57:49;98024.56;;;29.99;69.39
62164;BME280;48149;51.132;7.178;2023-07-31T11:00:23;98036.78;;;31.91;61.55
62164;BME280;48149;51.132;7.178;2023-07-31T11:03:04;98031.56;;;31.75;60.03
62164;BME280;48149;51.132;7.178;2023-07-31T11:08:27;98025.72;;;32.66;58.61
62164;BME280;48149;51.132;7.178;2023-07-31T11:13:27;98026.22;;;29.53;69.40
62164;BME280;48149;51.132;7.178;2023-07-31T11:15:53;98030.31;;;30.75;68.98
62164;BME280;48149;51.132;7.178;2023-07-31T11:18:18;98034.03;;;31.35;64.59
62164;BME280;48149;51.132;7.178;2023-07-31T11:20:43;98026.09;;;29.46;73.16
62164;BME280;48149;51.132;7.178;2023-07-31T11:23:10;98029.34;;;30.25;70.63
62164;BME280;48149;51.132;7.178;2023-07-31T11:25:37;98036.41;;;31.62;63.09
62164;BME280;48149;51.132;7.178;2023-07-31T11:28:08;98042.63;;;31.17;65.67
62164;BME280;48149;51.132;7.178;2023-07-31T11:30:35;98037.28;;;31.21;63.09
62164;BME280;48149;51.132;7.178;2023-07-31T11:33:02;98025.00;;;30.01;74.38
62164;BME280;48149;51.132;7.178;2023-07-31T11:35:34;98032.25;;;29.82;72.21
62164;BME280;48149;51.132;7.178;2023-07-31T11:38:00;98028.00;;;27.88;85.54
62164;BME280;48149;51.132;7.178;2023-07-31T11:40:26;98031.59;;;26.95;91.37
62164;BME280;48149;51.132;7.178;2023-07-31T11:42:58;98022.78;;;27.79;88.66
62164;BME280;48149;51.132;7.178;2023-07-31T11:45:26;98020.25;;;28.82;82.63
62164;BME280;48149;51.132;7.178;2023-07-31T11:47:55;98020.50;;;29.55;75.71
62164;BME280;48149;51.132;7.178;2023-07-31T11:50:22;98022.88;;;31.40;64.21
62164;BME280;48149;51.132;7.178;2023-07-31T11:52:55;98000.38;;;32.51;58.88
62164;BME280;48149;51.132;7.178;2023-07-31T11:55:22;98005.03;;;32.51;61.02
62164;BME280;48149;51.132;7.178;2023-07-31T11:57:48;98002.50;;;31.46;61.66
62164;BME280;48149;51.132;7.178;2023-07-31T12:00:15;98005.13;;;32.58;57.99
62164;BME280;48149;51.132;7.178;2023-07-31T12:02:42;98011.25;;;34.01;51.25
62164;BME280;48149;51.132;7.178;2023-07-31T12:05:12;98015.78;;;35.29;46.82
62164;BME280;48149;51.132;7.178;2023-07-31T12:07:47;98010.22;;;30.95;62.63
62164;BME280;48149;51.132;7.178;2023-07-31T12:10:29;97999.00;;;32.64;57.46
62164;BME280;48149;51.132;7.178;2023-07-31T12:13:06;97998.91;;;32.20;60.66
62164;BME280;48149;51.132;7.178;2023-07-31T12:15:38;97990.06;;;34.52;51.83
62164;BME280;48149;51.132;7.178;2023-07-31T12:18:12;97990.72;;;32.94;55.77
62164;BME280;48149;51.132;7.178;2023-07-31T12:20:49;97992.44;;;32.32;59.28
62164;BME280;48149;51.132;7.178;2023-07-31T12:23:20;97979.50;;;32.52;57.88
62164;BME280;48149;51.132;7.178;2023-07-31T12:26:02;97976.34;;;32.87;56.96
62164;BME280;48149;51.132;7.178;2023-07-31T12:28:28;97978.56;;;29.77;72.64
62164;BME280;48149;51.132;7.178;2023-07-31T12:30:57;97972.88;;;28.22;84.02
62164;BME280;48149;51.132;7.178;2023-07-31T12:33:31;97988.97;;;29.40;76.70
62164;BME280;48149;51.132;7.178;2023-07-31T12:35:56;97989.81;;;28.66;78.16
62164;BME280;48149;51.132;7.178;2023-07-31T12:38:22;97995.94;;;28.50;83.05
62164;BME280;48149;51.132;7.178;2023-07-31T12:40:47;97988.47;;;28.59;82.30
62164;BME280;48149;51.132;7.178;2023-07-31T12:43:13;97983.25;;;28.35;82.53
62164;BME280;48149;51.132;7.178;2023-07-31T12:45:38;97982.66;;;26.77;92.09
62164;BME280;48149;51.132;7.178;2023-07-31T12:48:04;97992.00;;;27.16;87.89
62164;BME280;48149;51.132;7.178;2023-07-31T12:50:30;97987.44;;;28.48;79.52
62164;BME280;48149;51.132;7.178;2023-07-31T12:52:56;97982.59;;;27.34;85.02
62164;BME280;48149;51.132;7.178;2023-07-31T12:55:22;97986.84;;;27.60;85.73
62164;BME280;48149;51.132;7.178;2023-07-31T12:57:48;97995.63;;;25.89;95.73
62164;BME280;48149;51.132;7.178;2023-07-31T13:00:14;97993.53;;;26.93;89.47
62164;BME280;48149;51.132;7.178;2023-07-31T13:02:39;97976.88;;;26.99;87.44
62164;BME280;48149;51.132;7.178;2023-07-31T13:05:05;97971.84;;;27.46;87.17
62164;BME280;48149;51.132;7.178;2023-07-31T13:07:30;97963.28;;;27.69;82.25
62164;BME280;48149;51.132;7.178;2023-07-31T13:09:56;97972.03;;;28.33;81.56
62164;BME280;48149;51.132;7.178;2023-07-31T13:12:21;97959.81;;;28.51;82.29